East Hanover, Pennsylvania
Current Conditions -  °F | °C
As of 4:58 AM on Friday 24 Oct 2014 (Local Time) from KMUI Reporting Station
Broken Clouds Broken Clouds  
Wind Chill: 56°   Ceiling: 3400
Heat Index: 56°   Visibility: 10mi
Dew Point: 46°   Wind: 8mph
Humidity: 69%   Direction: 340°NNW
Pressure: 29.89"   Gusts: 18mph
Location:  40.3819°N, 76.5718°W
Report Text: KMUI 240858Z AUTO 34007G16KT 10SM BKN034 13/08 A2989 RMK AO2 SLP124 T01320076 51008 $
Loading
Personal Weather Stations






























Interactive Weather Map
Tropical Storm Tracking
New forecast layout! Learn more

10-Day Weather Forecast

Advertisements
Track Severe Weather on mobile